sensor_id;sensor_type;location;lat;lon;timestamp;P1;durP1;ratioP1;P2;durP2;ratioP2
479;SDS011;226;48.606;9.096;2022-11-15T00:01:14;3.20;;;2.73;;
479;SDS011;226;48.606;9.096;2022-11-15T00:03:44;4.00;;;2.77;;
479;SDS011;226;48.606;9.096;2022-11-15T00:06:12;2.87;;;2.67;;
479;SDS011;226;48.606;9.096;2022-11-15T00:08:42;3.70;;;3.37;;
479;SDS011;226;48.606;9.096;2022-11-15T00:11:11;3.73;;;3.27;;
479;SDS011;226;48.606;9.096;2022-11-15T00:13:39;7.23;;;3.60;;
479;SDS011;226;48.606;9.096;2022-11-15T00:16:08;3.63;;;2.57;;
479;SDS011;226;48.606;9.096;2022-11-15T00:18:37;4.30;;;3.90;;
479;SDS011;226;48.606;9.096;2022-11-15T00:21:06;4.53;;;4.23;;
479;SDS011;226;48.606;9.096;2022-11-15T00:23:37;3.57;;;3.23;;
479;SDS011;226;48.606;9.096;2022-11-15T00:26:07;5.07;;;4.23;;
479;SDS011;226;48.606;9.096;2022-11-15T00:28:38;6.90;;;4.80;;
479;SDS011;226;48.606;9.096;2022-11-15T00:31:06;4.63;;;3.67;;
479;SDS011;226;48.606;9.096;2022-11-15T00:33:36;11.17;;;3.90;;
479;SDS011;226;48.606;9.096;2022-11-15T00:36:04;2.67;;;2.47;;
479;SDS011;226;48.606;9.096;2022-11-15T00:38:36;6.17;;;3.67;;
479;SDS011;226;48.606;9.096;2022-11-15T00:41:05;3.80;;;3.50;;
479;SDS011;226;48.606;9.096;2022-11-15T00:43:35;3.87;;;2.97;;
479;SDS011;226;48.606;9.096;2022-11-15T00:46:03;7.13;;;4.30;;
479;SDS011;226;48.606;9.096;2022-11-15T00:48:31;11.97;;;4.77;;
479;SDS011;226;48.606;9.096;2022-11-15T00:50:59;3.40;;;3.20;;
479;SDS011;226;48.606;9.096;2022-11-15T00:53:27;2.87;;;2.67;;
479;SDS011;226;48.606;9.096;2022-11-15T00:55:56;3.67;;;3.40;;
479;SDS011;226;48.606;9.096;2022-11-15T00:58:25;3.10;;;2.90;;
479;SDS011;226;48.606;9.096;2022-11-15T01:00:53;3.50;;;2.80;;
479;SDS011;226;48.606;9.096;2022-11-15T01:03:21;2.93;;;2.70;;
479;SDS011;226;48.606;9.096;2022-11-15T01:05:49;4.60;;;3.10;;
479;SDS011;226;48.606;9.096;2022-11-15T01:08:18;3.27;;;3.07;;
479;SDS011;226;48.606;9.096;2022-11-15T01:10:49;3.80;;;3.17;;
479;SDS011;226;48.606;9.096;2022-11-15T01:13:17;3.13;;;2.80;;
479;SDS011;226;48.606;9.096;2022-11-15T01:15:46;2.97;;;2.40;;
479;SDS011;226;48.606;9.096;2022-11-15T01:18:14;1.83;;;1.73;;
479;SDS011;226;48.606;9.096;2022-11-15T01:20:42;2.30;;;2.20;;
479;SDS011;226;48.606;9.096;2022-11-15T01:23:10;2.33;;;2.23;;
479;SDS011;226;48.606;9.096;2022-11-15T01:25:38;2.40;;;2.30;;
479;SDS011;226;48.606;9.096;2022-11-15T01:28:06;2.87;;;2.67;;
479;SDS011;226;48.606;9.096;2022-11-15T01:30:35;2.10;;;2.00;;
479;SDS011;226;48.606;9.096;2022-11-15T01:33:05;5.37;;;3.90;;
479;SDS011;226;48.606;9.096;2022-11-15T01:35:32;5.13;;;2.23;;
479;SDS011;226;48.606;9.096;2022-11-15T01:38:05;2.77;;;2.57;;
479;SDS011;226;48.606;9.096;2022-11-15T01:40:33;2.60;;;1.63;;
479;SDS011;226;48.606;9.096;2022-11-15T01:45:49;4.17;;;3.00;;
479;SDS011;226;48.606;9.096;2022-11-15T01:48:22;3.30;;;3.00;;
479;SDS011;226;48.606;9.096;2022-11-15T01:50:53;3.47;;;3.27;;
479;SDS011;226;48.606;9.096;2022-11-15T01:53:21;3.27;;;3.07;;
479;SDS011;226;48.606;9.096;2022-11-15T01:55:52;3.10;;;2.83;;
479;SDS011;226;48.606;9.096;2022-11-15T01:58:20;3.90;;;2.57;;
479;SDS011;226;48.606;9.096;2022-11-15T02:00:49;2.17;;;2.07;;
479;SDS011;226;48.606;9.096;2022-11-15T02:03:24;3.23;;;2.93;;
479;SDS011;226;48.606;9.096;2022-11-15T02:05:58;2.47;;;2.37;;
479;SDS011;226;48.606;9.096;2022-11-15T02:08:26;2.30;;;2.20;;
479;SDS011;226;48.606;9.096;2022-11-15T02:10:54;2.27;;;2.17;;
479;SDS011;226;48.606;9.096;2022-11-15T02:13:22;2.80;;;2.40;;
479;SDS011;226;48.606;9.096;2022-11-15T02:15:52;2.90;;;2.70;;
479;SDS011;226;48.606;9.096;2022-11-15T02:18:32;2.60;;;2.20;;
479;SDS011;226;48.606;9.096;2022-11-15T02:21:07;3.07;;;2.87;;
479;SDS011;226;48.606;9.096;2022-11-15T02:23:56;3.20;;;2.90;;
479;SDS011;226;48.606;9.096;2022-11-15T02:26:57;2.27;;;2.17;;
479;SDS011;226;48.606;9.096;2022-11-15T02:29:49;2.27;;;2.07;;
479;SDS011;226;48.606;9.096;2022-11-15T02:32:32;2.23;;;2.10;;
479;SDS011;226;48.606;9.096;2022-11-15T02:35:10;2.60;;;2.50;;
479;SDS011;226;48.606;9.096;2022-11-15T02:37:45;3.23;;;3.00;;
479;SDS011;226;48.606;9.096;2022-11-15T02:40:23;2.80;;;2.60;;
479;SDS011;226;48.606;9.096;2022-11-15T02:43:03;3.70;;;1.50;;
479;SDS011;226;48.606;9.096;2022-11-15T02:45:53;2.00;;;1.90;;
479;SDS011;226;48.606;9.096;2022-11-15T02:48:35;2.70;;;2.50;;
479;SDS011;226;48.606;9.096;2022-11-15T02:51:04;2.97;;;2.30;;
479;SDS011;226;48.606;9.096;2022-11-15T02:53:33;2.43;;;2.23;;
479;SDS011;226;48.606;9.096;2022-11-15T02:56:01;3.33;;;3.17;;
479;SDS011;226;48.606;9.096;2022-11-15T02:58:38;2.77;;;2.50;;
479;SDS011;226;48.606;9.096;2022-11-15T03:01:27;2.53;;;2.40;;
479;SDS011;226;48.606;9.096;2022-11-15T03:04:10;2.93;;;2.67;;
479;SDS011;226;48.606;9.096;2022-11-15T03:06:48;2.87;;;1.70;;
479;SDS011;226;48.606;9.096;2022-11-15T03:09:22;2.90;;;2.13;;
479;SDS011;226;48.606;9.096;2022-11-15T03:11:57;2.60;;;2.40;;
479;SDS011;226;48.606;9.096;2022-11-15T03:14:31;2.97;;;2.70;;
479;SDS011;226;48.606;9.096;2022-11-15T03:17:03;3.33;;;2.47;;
479;SDS011;226;48.606;9.096;2022-11-15T03:19:42;3.40;;;2.30;;
479;SDS011;226;48.606;9.096;2022-11-15T03:22:14;4.53;;;3.50;;
479;SDS011;226;48.606;9.096;2022-11-15T03:24:44;2.33;;;2.20;;
479;SDS011;226;48.606;9.096;2022-11-15T03:27:15;3.23;;;2.90;;
479;SDS011;226;48.606;9.096;2022-11-15T03:29:48;3.40;;;2.60;;
479;SDS011;226;48.606;9.096;2022-11-15T03:32:20;2.10;;;2.00;;
479;SDS011;226;48.606;9.096;2022-11-15T03:34:55;2.70;;;2.50;;
479;SDS011;226;48.606;9.096;2022-11-15T03:37:27;5.10;;;2.23;;
479;SDS011;226;48.606;9.096;2022-11-15T03:40:01;3.40;;;3.13;;
479;SDS011;226;48.606;9.096;2022-11-15T03:42:32;6.00;;;2.87;;
479;SDS011;226;48.606;9.096;2022-11-15T03:45:08;3.77;;;2.83;;
479;SDS011;226;48.606;9.096;2022-11-15T03:47:42;4.73;;;3.80;;
479;SDS011;226;48.606;9.096;2022-11-15T03:50:16;3.23;;;2.67;;
479;SDS011;226;48.606;9.096;2022-11-15T03:52:46;6.53;;;2.90;;
479;SDS011;226;48.606;9.096;2022-11-15T03:55:17;6.87;;;4.00;;
479;SDS011;226;48.606;9.096;2022-11-15T03:57:46;2.60;;;2.40;;
479;SDS011;226;48.606;9.096;2022-11-15T04:00:16;2.83;;;2.63;;
479;SDS011;226;48.606;9.096;2022-11-15T04:02:44;3.53;;;3.03;;
479;SDS011;226;48.606;9.096;2022-11-15T04:05:12;6.83;;;3.00;;
479;SDS011;226;48.606;9.096;2022-11-15T04:07:42;2.83;;;2.63;;
479;SDS011;226;48.606;9.096;2022-11-15T04:10:10;5.20;;;3.37;;
479;SDS011;226;48.606;9.096;2022-11-15T04:12:40;4.90;;;3.27;;
479;SDS011;226;48.606;9.096;2022-11-15T04:15:10;4.77;;;4.03;;
479;SDS011;226;48.606;9.096;2022-11-15T04:17:39;5.13;;;4.63;;
479;SDS011;226;48.606;9.096;2022-11-15T04:20:13;5.37;;;3.87;;
479;SDS011;226;48.606;9.096;2022-11-15T04:23:04;7.53;;;4.30;;
479;SDS011;226;48.606;9.096;2022-11-15T04:25:52;3.97;;;3.70;;
479;SDS011;226;48.606;9.096;2022-11-15T04:28:22;5.20;;;3.77;;
479;SDS011;226;48.606;9.096;2022-11-15T04:30:50;6.20;;;4.47;;
479;SDS011;226;48.606;9.096;2022-11-15T04:33:18;6.20;;;3.33;;
479;SDS011;226;48.606;9.096;2022-11-15T04:35:46;3.40;;;3.17;;
479;SDS011;226;48.606;9.096;2022-11-15T04:38:36;3.87;;;2.80;;
479;SDS011;226;48.606;9.096;2022-11-15T04:41:03;4.00;;;2.90;;
479;SDS011;226;48.606;9.096;2022-11-15T04:43:31;2.90;;;2.70;;
479;SDS011;226;48.606;9.096;2022-11-15T04:46:00;3.83;;;3.47;;
479;SDS011;226;48.606;9.096;2022-11-15T04:48:28;6.93;;;4.83;;
479;SDS011;226;48.606;9.096;2022-11-15T04:50:56;14.93;;;6.93;;
479;SDS011;226;48.606;9.096;2022-11-15T04:53:23;13.23;;;8.07;;
479;SDS011;226;48.606;9.096;2022-11-15T04:55:54;15.30;;;7.60;;
479;SDS011;226;48.606;9.096;2022-11-15T04:58:22;10.27;;;6.07;;
479;SDS011;226;48.606;9.096;2022-11-15T05:00:50;8.63;;;6.00;;
479;SDS011;226;48.606;9.096;2022-11-15T05:03:18;11.20;;;4.93;;
479;SDS011;226;48.606;9.096;2022-11-15T05:06:04;5.40;;;3.30;;
479;SDS011;226;48.606;9.096;2022-11-15T05:08:33;4.27;;;3.57;;
479;SDS011;226;48.606;9.096;2022-11-15T05:11:02;3.50;;;3.30;;
479;SDS011;226;48.606;9.096;2022-11-15T05:13:30;3.50;;;3.20;;
479;SDS011;226;48.606;9.096;2022-11-15T05:15:59;3.83;;;3.53;;
479;SDS011;226;48.606;9.096;2022-11-15T05:18:27;4.37;;;3.17;;
479;SDS011;226;48.606;9.096;2022-11-15T05:20:55;3.27;;;3.00;;
479;SDS011;226;48.606;9.096;2022-11-15T05:23:23;5.60;;;5.10;;
479;SDS011;226;48.606;9.096;2022-11-15T05:25:51;3.73;;;3.03;;
479;SDS011;226;48.606;9.096;2022-11-15T05:28:20;6.70;;;3.47;;
479;SDS011;226;48.606;9.096;2022-11-15T05:30:48;3.33;;;3.10;;
479;SDS011;226;48.606;9.096;2022-11-15T05:33:16;6.30;;;4.53;;
479;SDS011;226;48.606;9.096;2022-11-15T05:35:45;6.80;;;4.40;;
479;SDS011;226;48.606;9.096;2022-11-15T05:38:18;5.07;;;4.70;;
479;SDS011;226;48.606;9.096;2022-11-15T05:40:46;6.80;;;4.80;;
479;SDS011;226;48.606;9.096;2022-11-15T05:43:14;5.63;;;5.07;;
479;SDS011;226;48.606;9.096;2022-11-15T05:45:43;7.50;;;5.03;;
479;SDS011;226;48.606;9.096;2022-11-15T05:48:11;8.53;;;4.70;;
479;SDS011;226;48.606;9.096;2022-11-15T05:50:41;9.43;;;5.67;;
479;SDS011;226;48.606;9.096;2022-11-15T05:53:11;7.80;;;4.77;;
479;SDS011;226;48.606;9.096;2022-11-15T05:55:42;7.90;;;4.93;;
479;SDS011;226;48.606;9.096;2022-11-15T05:58:10;12.80;;;5.97;;
479;SDS011;226;48.606;9.096;2022-11-15T06:00:38;10.63;;;5.70;;
479;SDS011;226;48.606;9.096;2022-11-15T06:03:08;11.43;;;6.10;;
479;SDS011;226;48.606;9.096;2022-11-15T06:05:36;6.70;;;3.70;;
479;SDS011;226;48.606;9.096;2022-11-15T06:08:04;5.77;;;3.50;;
479;SDS011;226;48.606;9.096;2022-11-15T06:10:32;11.73;;;6.47;;
479;SDS011;226;48.606;9.096;2022-11-15T06:13:01;15.53;;;6.67;;
479;SDS011;226;48.606;9.096;2022-11-15T06:15:31;4.30;;;3.90;;
479;SDS011;226;48.606;9.096;2022-11-15T06:18:00;4.27;;;3.83;;
479;SDS011;226;48.606;9.096;2022-11-15T06:20:30;6.23;;;4.27;;
479;SDS011;226;48.606;9.096;2022-11-15T06:22:58;3.93;;;3.70;;
479;SDS011;226;48.606;9.096;2022-11-15T06:25:27;4.53;;;3.77;;
479;SDS011;226;48.606;9.096;2022-11-15T06:27:57;11.60;;;4.87;;
479;SDS011;226;48.606;9.096;2022-11-15T06:30:25;8.80;;;5.57;;
479;SDS011;226;48.606;9.096;2022-11-15T06:32:58;9.47;;;5.67;;
479;SDS011;226;48.606;9.096;2022-11-15T06:35:28;9.17;;;6.40;;
479;SDS011;226;48.606;9.096;2022-11-15T06:38:01;10.33;;;6.10;;
479;SDS011;226;48.606;9.096;2022-11-15T06:40:32;10.53;;;7.67;;
479;SDS011;226;48.606;9.096;2022-11-15T06:43:01;17.93;;;8.67;;
479;SDS011;226;48.606;9.096;2022-11-15T06:45:30;17.97;;;10.10;;
479;SDS011;226;48.606;9.096;2022-11-15T06:47:58;19.30;;;11.03;;
479;SDS011;226;48.606;9.096;2022-11-15T06:50:26;16.43;;;8.50;;
479;SDS011;226;48.606;9.096;2022-11-15T06:52:56;17.90;;;7.20;;
479;SDS011;226;48.606;9.096;2022-11-15T06:55:28;12.57;;;7.20;;
479;SDS011;226;48.606;9.096;2022-11-15T06:57:56;19.03;;;8.20;;
479;SDS011;226;48.606;9.096;2022-11-15T07:00:24;10.23;;;7.07;;
479;SDS011;226;48.606;9.096;2022-11-15T07:02:52;19.00;;;6.50;;
479;SDS011;226;48.606;9.096;2022-11-15T07:05:22;10.17;;;6.50;;
479;SDS011;226;48.606;9.096;2022-11-15T07:07:52;13.97;;;5.43;;
479;SDS011;226;48.606;9.096;2022-11-15T07:10:23;15.97;;;6.77;;
479;SDS011;226;48.606;9.096;2022-11-15T07:12:51;5.40;;;3.90;;
479;SDS011;226;48.606;9.096;2022-11-15T07:15:24;4.13;;;3.77;;
479;SDS011;226;48.606;9.096;2022-11-15T07:17:53;5.70;;;4.70;;
479;SDS011;226;48.606;9.096;2022-11-15T07:20:21;9.13;;;5.50;;
479;SDS011;226;48.606;9.096;2022-11-15T07:22:48;14.93;;;7.67;;
479;SDS011;226;48.606;9.096;2022-11-15T07:25:16;12.50;;;5.90;;
479;SDS011;226;48.606;9.096;2022-11-15T07:27:54;7.57;;;5.10;;
479;SDS011;226;48.606;9.096;2022-11-15T07:30:23;39.53;;;5.30;;
479;SDS011;226;48.606;9.096;2022-11-15T07:32:52;8.60;;;5.30;;
479;SDS011;226;48.606;9.096;2022-11-15T07:35:21;4.50;;;4.13;;
479;SDS011;226;48.606;9.096;2022-11-15T07:37:53;4.80;;;4.33;;
479;SDS011;226;48.606;9.096;2022-11-15T07:40:22;5.40;;;4.73;;
479;SDS011;226;48.606;9.096;2022-11-15T07:42:51;7.87;;;5.10;;
479;SDS011;226;48.606;9.096;2022-11-15T07:45:24;8.03;;;5.67;;
479;SDS011;226;48.606;9.096;2022-11-15T07:47:53;9.73;;;5.57;;
479;SDS011;226;48.606;9.096;2022-11-15T07:50:22;7.47;;;5.13;;
479;SDS011;226;48.606;9.096;2022-11-15T07:52:54;7.77;;;5.60;;
479;SDS011;226;48.606;9.096;2022-11-15T07:55:22;5.10;;;3.50;;
479;SDS011;226;48.606;9.096;2022-11-15T07:57:50;5.17;;;3.80;;
479;SDS011;226;48.606;9.096;2022-11-15T08:00:19;10.33;;;4.03;;
479;SDS011;226;48.606;9.096;2022-11-15T08:02:48;7.33;;;3.33;;
479;SDS011;226;48.606;9.096;2022-11-15T08:05:16;7.50;;;4.40;;
479;SDS011;226;48.606;9.096;2022-11-15T08:07:44;7.30;;;4.80;;
479;SDS011;226;48.606;9.096;2022-11-15T08:10:12;5.97;;;4.60;;
479;SDS011;226;48.606;9.096;2022-11-15T08:12:42;7.90;;;5.67;;
479;SDS011;226;48.606;9.096;2022-11-15T08:15:10;10.20;;;5.60;;
479;SDS011;226;48.606;9.096;2022-11-15T08:17:38;8.50;;;4.43;;
479;SDS011;226;48.606;9.096;2022-11-15T08:20:09;3.90;;;3.50;;
479;SDS011;226;48.606;9.096;2022-11-15T08:22:37;4.53;;;4.13;;
479;SDS011;226;48.606;9.096;2022-11-15T08:25:05;11.23;;;5.23;;
479;SDS011;226;48.606;9.096;2022-11-15T08:27:34;7.97;;;4.43;;
479;SDS011;226;48.606;9.096;2022-11-15T08:30:02;10.80;;;5.70;;
479;SDS011;226;48.606;9.096;2022-11-15T08:32:31;7.00;;;4.13;;
479;SDS011;226;48.606;9.096;2022-11-15T08:34:59;5.77;;;4.37;;
479;SDS011;226;48.606;9.096;2022-11-15T08:37:30;3.40;;;3.10;;
479;SDS011;226;48.606;9.096;2022-11-15T08:39:58;7.90;;;4.80;;
479;SDS011;226;48.606;9.096;2022-11-15T08:42:26;7.20;;;4.97;;
479;SDS011;226;48.606;9.096;2022-11-15T08:44:54;6.80;;;4.60;;
479;SDS011;226;48.606;9.096;2022-11-15T08:47:22;4.53;;;4.07;;
479;SDS011;226;48.606;9.096;2022-11-15T08:49:50;10.83;;;6.37;;
479;SDS011;226;48.606;9.096;2022-11-15T08:52:18;7.93;;;4.80;;
479;SDS011;226;48.606;9.096;2022-11-15T08:54:49;9.43;;;4.53;;
479;SDS011;226;48.606;9.096;2022-11-15T08:57:20;14.90;;;4.60;;
479;SDS011;226;48.606;9.096;2022-11-15T08:59:50;9.50;;;5.03;;
479;SDS011;226;48.606;9.096;2022-11-15T09:02:18;7.70;;;5.30;;
479;SDS011;226;48.606;9.096;2022-11-15T09:04:47;10.87;;;5.30;;
479;SDS011;226;48.606;9.096;2022-11-15T09:07:15;11.10;;;5.20;;
479;SDS011;226;48.606;9.096;2022-11-15T09:09:44;9.50;;;7.73;;
479;SDS011;226;48.606;9.096;2022-11-15T09:12:14;9.83;;;7.30;;
479;SDS011;226;48.606;9.096;2022-11-15T09:14:42;7.03;;;5.73;;
479;SDS011;226;48.606;9.096;2022-11-15T09:17:10;9.87;;;6.00;;
479;SDS011;226;48.606;9.096;2022-11-15T09:19:39;8.20;;;5.97;;
479;SDS011;226;48.606;9.096;2022-11-15T09:22:07;5.73;;;4.70;;
479;SDS011;226;48.606;9.096;2022-11-15T09:24:35;5.10;;;3.83;;
479;SDS011;226;48.606;9.096;2022-11-15T09:27:03;7.30;;;4.53;;
479;SDS011;226;48.606;9.096;2022-11-15T09:29:33;7.97;;;5.60;;
479;SDS011;226;48.606;9.096;2022-11-15T09:32:03;5.07;;;4.43;;
479;SDS011;226;48.606;9.096;2022-11-15T09:34:32;8.23;;;6.13;;
479;SDS011;226;48.606;9.096;2022-11-15T09:37:00;9.50;;;6.17;;
479;SDS011;226;48.606;9.096;2022-11-15T09:39:28;15.60;;;6.47;;
479;SDS011;226;48.606;9.096;2022-11-15T09:42:03;14.33;;;7.00;;
479;SDS011;226;48.606;9.096;2022-11-15T09:44:50;13.40;;;7.20;;
479;SDS011;226;48.606;9.096;2022-11-15T09:47:37;10.67;;;5.30;;
479;SDS011;226;48.606;9.096;2022-11-15T09:50:28;11.83;;;5.00;;
479;SDS011;226;48.606;9.096;2022-11-15T09:53:02;9.10;;;4.87;;
479;SDS011;226;48.606;9.096;2022-11-15T09:55:32;6.90;;;4.20;;
479;SDS011;226;48.606;9.096;2022-11-15T09:58:09;8.60;;;3.90;;
479;SDS011;226;48.606;9.096;2022-11-15T10:00:46;5.53;;;3.30;;
479;SDS011;226;48.606;9.096;2022-11-15T10:03:20;4.97;;;3.27;;
479;SDS011;226;48.606;9.096;2022-11-15T10:05:54;3.13;;;2.80;;
479;SDS011;226;48.606;9.096;2022-11-15T10:11:19;4.33;;;2.60;;
479;SDS011;226;48.606;9.096;2022-11-15T10:14:08;2.97;;;2.77;;
479;SDS011;226;48.606;9.096;2022-11-15T10:16:51;2.10;;;1.83;;
479;SDS011;226;48.606;9.096;2022-11-15T10:19:38;1.90;;;1.60;;
479;SDS011;226;48.606;9.096;2022-11-15T10:22:21;10.63;;;1.90;;
479;SDS011;226;48.606;9.096;2022-11-15T10:25:00;7.07;;;1.93;;
479;SDS011;226;48.606;9.096;2022-11-15T10:27:43;2.00;;;1.77;;
479;SDS011;226;48.606;9.096;2022-11-15T10:30:17;2.30;;;2.10;;
479;SDS011;226;48.606;9.096;2022-11-15T10:32:49;1.90;;;1.80;;
479;SDS011;226;48.606;9.096;2022-11-15T10:35:22;1.47;;;1.40;;
479;SDS011;226;48.606;9.096;2022-11-15T10:37:51;2.10;;;1.53;;
479;SDS011;226;48.606;9.096;2022-11-15T10:40:20;2.80;;;1.13;;
479;SDS011;226;48.606;9.096;2022-11-15T10:43:04;1.63;;;1.50;;
479;SDS011;226;48.606;9.096;2022-11-15T10:45:39;2.30;;;1.47;;
479;SDS011;226;48.606;9.096;2022-11-15T10:48:20;1.70;;;1.60;;
479;SDS011;226;48.606;9.096;2022-11-15T10:50:50;2.33;;;2.13;;
479;SDS011;226;48.606;9.096;2022-11-15T10:53:21;1.97;;;1.87;;
479;SDS011;226;48.606;9.096;2022-11-15T10:55:53;2.40;;;1.80;;
479;SDS011;226;48.606;9.096;2022-11-15T10:58:30;2.40;;;1.80;;
479;SDS011;226;48.606;9.096;2022-11-15T11:01:08;1.20;;;1.20;;
479;SDS011;226;48.606;9.096;2022-11-15T11:03:43;3.00;;;1.50;;
479;SDS011;226;48.606;9.096;2022-11-15T11:06:12;1.60;;;1.50;;
479;SDS011;226;48.606;9.096;2022-11-15T11:08:53;2.23;;;1.70;;
479;SDS011;226;48.606;9.096;2022-11-15T11:11:22;1.57;;;1.47;;
479;SDS011;226;48.606;9.096;2022-11-15T11:13:51;2.40;;;1.70;;
479;SDS011;226;48.606;9.096;2022-11-15T11:19:14;2.10;;;1.30;;
479;SDS011;226;48.606;9.096;2022-11-15T11:21:52;3.17;;;1.30;;
479;SDS011;226;48.606;9.096;2022-11-15T11:24:30;1.70;;;1.53;;
479;SDS011;226;48.606;9.096;2022-11-15T11:27:11;1.90;;;1.60;;
479;SDS011;226;48.606;9.096;2022-11-15T11:29:50;2.83;;;1.60;;
479;SDS011;226;48.606;9.096;2022-11-15T11:32:33;4.50;;;2.30;;
479;SDS011;226;48.606;9.096;2022-11-15T11:35:11;2.40;;;1.60;;
479;SDS011;226;48.606;9.096;2022-11-15T11:37:45;2.13;;;1.90;;
479;SDS011;226;48.606;9.096;2022-11-15T11:40:20;1.50;;;1.40;;
479;SDS011;226;48.606;9.096;2022-11-15T11:42:58;1.53;;;1.37;;
479;SDS011;226;48.606;9.096;2022-11-15T11:45:41;4.10;;;1.60;;
479;SDS011;226;48.606;9.096;2022-11-15T11:48:23;1.70;;;1.60;;
479;SDS011;226;48.606;9.096;2022-11-15T11:51:04;2.00;;;1.90;;
479;SDS011;226;48.606;9.096;2022-11-15T11:53:38;1.67;;;1.53;;
479;SDS011;226;48.606;9.096;2022-11-15T11:56:13;1.37;;;1.27;;
479;SDS011;226;48.606;9.096;2022-11-15T11:58:48;2.00;;;1.87;;
479;SDS011;226;48.606;9.096;2022-11-15T12:01:20;1.40;;;1.40;;
479;SDS011;226;48.606;9.096;2022-11-15T12:03:52;2.17;;;1.60;;
479;SDS011;226;48.606;9.096;2022-11-15T12:06:30;1.53;;;1.43;;
479;SDS011;226;48.606;9.096;2022-11-15T12:09:01;3.87;;;2.13;;
479;SDS011;226;48.606;9.096;2022-11-15T12:11:35;2.50;;;2.40;;
479;SDS011;226;48.606;9.096;2022-11-15T12:14:11;2.57;;;2.37;;
479;SDS011;226;48.606;9.096;2022-11-15T12:16:46;4.13;;;3.13;;
479;SDS011;226;48.606;9.096;2022-11-15T12:19:14;3.20;;;2.47;;
479;SDS011;226;48.606;9.096;2022-11-15T12:21:45;2.03;;;1.93;;
479;SDS011;226;48.606;9.096;2022-11-15T12:24:18;2.43;;;1.70;;
479;SDS011;226;48.606;9.096;2022-11-15T12:26:51;2.10;;;1.73;;
479;SDS011;226;48.606;9.096;2022-11-15T12:29:25;2.10;;;1.67;;
479;SDS011;226;48.606;9.096;2022-11-15T12:31:56;1.47;;;1.37;;
479;SDS011;226;48.606;9.096;2022-11-15T12:34:33;1.47;;;1.37;;
479;SDS011;226;48.606;9.096;2022-11-15T12:40:18;3.23;;;1.40;;
479;SDS011;226;48.606;9.096;2022-11-15T12:46:01;2.93;;;2.60;;
479;SDS011;226;48.606;9.096;2022-11-15T12:48:48;2.00;;;1.90;;
479;SDS011;226;48.606;9.096;2022-11-15T12:51:22;2.33;;;2.13;;
479;SDS011;226;48.606;9.096;2022-11-15T12:57:35;5.60;;;2.10;;
479;SDS011;226;48.606;9.096;2022-11-15T13:03:17;3.50;;;1.70;;
479;SDS011;226;48.606;9.096;2022-11-15T13:05:58;1.43;;;1.33;;
479;SDS011;226;48.606;9.096;2022-11-15T13:17:22;1.87;;;1.77;;
479;SDS011;226;48.606;9.096;2022-11-15T13:20:00;5.27;;;1.30;;
479;SDS011;226;48.606;9.096;2022-11-15T13:22:47;2.40;;;2.20;;
479;SDS011;226;48.606;9.096;2022-11-15T13:25:20;2.77;;;2.20;;
479;SDS011;226;48.606;9.096;2022-11-15T13:28:00;2.23;;;2.03;;
479;SDS011;226;48.606;9.096;2022-11-15T13:30:34;3.57;;;2.97;;
479;SDS011;226;48.606;9.096;2022-11-15T13:33:07;2.40;;;2.07;;
479;SDS011;226;48.606;9.096;2022-11-15T13:35:38;2.10;;;1.90;;
479;SDS011;226;48.606;9.096;2022-11-15T13:38:11;1.87;;;1.70;;
479;SDS011;226;48.606;9.096;2022-11-15T13:40:47;2.67;;;2.33;;
479;SDS011;226;48.606;9.096;2022-11-15T13:43:17;2.53;;;2.00;;
479;SDS011;226;48.606;9.096;2022-11-15T13:46:06;2.60;;;2.23;;
479;SDS011;226;48.606;9.096;2022-11-15T13:48:35;3.53;;;2.23;;
479;SDS011;226;48.606;9.096;2022-11-15T13:51:04;4.60;;;2.33;;
479;SDS011;226;48.606;9.096;2022-11-15T13:53:36;2.60;;;2.17;;
479;SDS011;226;48.606;9.096;2022-11-15T13:56:07;2.97;;;2.03;;
479;SDS011;226;48.606;9.096;2022-11-15T13:58:37;2.27;;;2.07;;
479;SDS011;226;48.606;9.096;2022-11-15T14:01:11;2.63;;;1.90;;
479;SDS011;226;48.606;9.096;2022-11-15T14:03:46;4.30;;;2.50;;
479;SDS011;226;48.606;9.096;2022-11-15T14:06:21;2.80;;;2.60;;
479;SDS011;226;48.606;9.096;2022-11-15T14:08:58;5.70;;;2.60;;
479;SDS011;226;48.606;9.096;2022-11-15T14:11:29;3.77;;;2.73;;
479;SDS011;226;48.606;9.096;2022-11-15T14:14:03;3.40;;;2.60;;
479;SDS011;226;48.606;9.096;2022-11-15T14:16:41;2.40;;;2.20;;
479;SDS011;226;48.606;9.096;2022-11-15T14:19:11;4.10;;;2.77;;
479;SDS011;226;48.606;9.096;2022-11-15T14:22:13;2.93;;;2.70;;
479;SDS011;226;48.606;9.096;2022-11-15T14:24:44;4.33;;;3.20;;
479;SDS011;226;48.606;9.096;2022-11-15T14:27:17;7.53;;;3.20;;
479;SDS011;226;48.606;9.096;2022-11-15T14:29:52;7.00;;;3.90;;
479;SDS011;226;48.606;9.096;2022-11-15T14:32:22;3.93;;;3.30;;
479;SDS011;226;48.606;9.096;2022-11-15T14:34:53;5.47;;;3.20;;
479;SDS011;226;48.606;9.096;2022-11-15T14:37:24;5.20;;;3.13;;
479;SDS011;226;48.606;9.096;2022-11-15T14:39:52;4.33;;;3.40;;
479;SDS011;226;48.606;9.096;2022-11-15T14:42:21;4.73;;;2.43;;
479;SDS011;226;48.606;9.096;2022-11-15T14:44:50;3.17;;;2.60;;
479;SDS011;226;48.606;9.096;2022-11-15T14:47:18;1.67;;;1.57;;
479;SDS011;226;48.606;9.096;2022-11-15T14:49:48;5.80;;;2.60;;
479;SDS011;226;48.606;9.096;2022-11-15T14:52:22;4.20;;;2.30;;
479;SDS011;226;48.606;9.096;2022-11-15T14:54:57;3.67;;;2.73;;
479;SDS011;226;48.606;9.096;2022-11-15T14:57:25;7.80;;;5.10;;
479;SDS011;226;48.606;9.096;2022-11-15T14:59:54;4.73;;;3.10;;
479;SDS011;226;48.606;9.096;2022-11-15T15:02:23;8.13;;;3.30;;
479;SDS011;226;48.606;9.096;2022-11-15T15:04:54;4.93;;;3.63;;
479;SDS011;226;48.606;9.096;2022-11-15T15:07:27;10.80;;;6.50;;
479;SDS011;226;48.606;9.096;2022-11-15T15:09:55;5.50;;;4.97;;
479;SDS011;226;48.606;9.096;2022-11-15T15:12:43;9.50;;;5.10;;
479;SDS011;226;48.606;9.096;2022-11-15T15:15:12;3.80;;;3.43;;
479;SDS011;226;48.606;9.096;2022-11-15T15:17:42;3.53;;;3.03;;
479;SDS011;226;48.606;9.096;2022-11-15T15:20:11;7.87;;;5.10;;
479;SDS011;226;48.606;9.096;2022-11-15T15:22:39;15.83;;;5.87;;
479;SDS011;226;48.606;9.096;2022-11-15T15:25:14;12.40;;;5.43;;
479;SDS011;226;48.606;9.096;2022-11-15T15:27:48;13.70;;;3.90;;
479;SDS011;226;48.606;9.096;2022-11-15T15:30:17;5.37;;;3.43;;
479;SDS011;226;48.606;9.096;2022-11-15T15:32:45;4.77;;;3.67;;
479;SDS011;226;48.606;9.096;2022-11-15T15:35:15;7.97;;;4.70;;
479;SDS011;226;48.606;9.096;2022-11-15T15:37:44;6.37;;;4.07;;
479;SDS011;226;48.606;9.096;2022-11-15T15:40:13;9.00;;;4.30;;
479;SDS011;226;48.606;9.096;2022-11-15T15:42:43;7.07;;;5.33;;
479;SDS011;226;48.606;9.096;2022-11-15T15:45:11;7.00;;;5.20;;
479;SDS011;226;48.606;9.096;2022-11-15T15:47:40;14.30;;;5.93;;
479;SDS011;226;48.606;9.096;2022-11-15T15:50:21;6.20;;;4.93;;
479;SDS011;226;48.606;9.096;2022-11-15T15:52:51;5.70;;;4.70;;
479;SDS011;226;48.606;9.096;2022-11-15T15:55:21;8.80;;;4.80;;
479;SDS011;226;48.606;9.096;2022-11-15T15:57:49;5.00;;;3.87;;
479;SDS011;226;48.606;9.096;2022-11-15T16:00:18;15.10;;;5.20;;
479;SDS011;226;48.606;9.096;2022-11-15T16:02:47;7.13;;;4.20;;
479;SDS011;226;48.606;9.096;2022-11-15T16:05:15;6.53;;;3.60;;
479;SDS011;226;48.606;9.096;2022-11-15T16:07:45;4.30;;;3.80;;
479;SDS011;226;48.606;9.096;2022-11-15T16:10:16;4.23;;;3.80;;
479;SDS011;226;48.606;9.096;2022-11-15T16:12:48;5.57;;;3.50;;
479;SDS011;226;48.606;9.096;2022-11-15T16:15:17;6.10;;;4.77;;
479;SDS011;226;48.606;9.096;2022-11-15T16:17:47;4.83;;;3.70;;
479;SDS011;226;48.606;9.096;2022-11-15T16:20:28;7.83;;;4.97;;
479;SDS011;226;48.606;9.096;2022-11-15T16:23:03;8.73;;;4.47;;
479;SDS011;226;48.606;9.096;2022-11-15T16:25:37;7.63;;;4.70;;
479;SDS011;226;48.606;9.096;2022-11-15T16:30:59;10.60;;;5.73;;
479;SDS011;226;48.606;9.096;2022-11-15T16:33:28;7.30;;;4.30;;
479;SDS011;226;48.606;9.096;2022-11-15T16:35:56;4.13;;;3.67;;
479;SDS011;226;48.606;9.096;2022-11-15T16:38:26;10.37;;;4.67;;
479;SDS011;226;48.606;9.096;2022-11-15T16:40:54;9.20;;;4.43;;
479;SDS011;226;48.606;9.096;2022-11-15T16:43:22;5.80;;;4.03;;
479;SDS011;226;48.606;9.096;2022-11-15T16:45:50;11.57;;;4.03;;